Corryville, Ohio
Current Conditions -  °F | °C
As of 8:53 PM on Tuesday 25 Nov 2014 (Local Time) from KLUK Reporting Station
Clear Clear  
Wind Chill: 30°   Ceiling: Unl
Heat Index: 35°   Visibility: 10mi
Dew Point: 27°   Wind: 6mph
Humidity: 72%   Direction: 30°NNE
Pressure: 30.2"   Gusts: NA
Location:  39.1276°N, 84.5123°W
Report Text: KLUK 260153Z 03005KT 10SM CLR 02/M03 A3020 RMK AO2 SLP231 T00171028
Loading
Personal Weather Stations






























Interactive Weather Map New forecast layout! Learn more

10-Day Weather Forecast

Advertisements
Track Severe Weather on mobile